sensor_id;sensor_type;location;lat;lon;timestamp;P1;durP1;ratioP1;P2;durP2;ratioP2
14074;SDS011;12831;52.392;13.066;2023-02-02T00:00:13;19.48;;;3.95;;
14074;SDS011;12831;52.392;13.066;2023-02-02T00:02:39;12.60;;;2.42;;
14074;SDS011;12831;52.392;13.066;2023-02-02T00:05:05;15.77;;;3.55;;
14074;SDS011;12831;52.392;13.066;2023-02-02T00:07:30;10.02;;;2.55;;
14074;SDS011;12831;52.392;13.066;2023-02-02T00:09:56;14.30;;;2.67;;
14074;SDS011;12831;52.392;13.066;2023-02-02T00:12:22;16.33;;;4.30;;
14074;SDS011;12831;52.392;13.066;2023-02-02T00:14:47;15.75;;;2.80;;
14074;SDS011;12831;52.392;13.066;2023-02-02T00:17:13;17.95;;;2.60;;
14074;SDS011;12831;52.392;13.066;2023-02-02T00:19:39;14.30;;;3.78;;
14074;SDS011;12831;52.392;13.066;2023-02-02T00:22:05;17.40;;;3.65;;
14074;SDS011;12831;52.392;13.066;2023-02-02T00:24:30;14.10;;;3.78;;
14074;SDS011;12831;52.392;13.066;2023-02-02T00:26:57;16.92;;;3.08;;
14074;SDS011;12831;52.392;13.066;2023-02-02T00:29:24;12.63;;;3.15;;
14074;SDS011;12831;52.392;13.066;2023-02-02T00:31:50;11.32;;;2.55;;
14074;SDS011;12831;52.392;13.066;2023-02-02T00:34:16;14.88;;;3.47;;
14074;SDS011;12831;52.392;13.066;2023-02-02T00:36:43;15.18;;;2.53;;
14074;SDS011;12831;52.392;13.066;2023-02-02T00:39:09;17.75;;;3.58;;
14074;SDS011;12831;52.392;13.066;2023-02-02T00:41:35;12.80;;;3.67;;
14074;SDS011;12831;52.392;13.066;2023-02-02T00:44:01;11.55;;;2.80;;
14074;SDS011;12831;52.392;13.066;2023-02-02T00:46:45;34.33;;;4.47;;
14074;SDS011;12831;52.392;13.066;2023-02-02T00:49:11;16.40;;;2.85;;
14074;SDS011;12831;52.392;13.066;2023-02-02T00:51:37;19.48;;;3.17;;
14074;SDS011;12831;52.392;13.066;2023-02-02T00:54:03;13.70;;;3.08;;
14074;SDS011;12831;52.392;13.066;2023-02-02T00:56:29;18.17;;;3.97;;
14074;SDS011;12831;52.392;13.066;2023-02-02T00:58:54;14.13;;;3.53;;
14074;SDS011;12831;52.392;13.066;2023-02-02T01:01:21;19.65;;;2.90;;
14074;SDS011;12831;52.392;13.066;2023-02-02T01:03:48;17.63;;;3.60;;
14074;SDS011;12831;52.392;13.066;2023-02-02T01:06:14;12.65;;;3.42;;
14074;SDS011;12831;52.392;13.066;2023-02-02T01:08:40;19.80;;;4.65;;
14074;SDS011;12831;52.392;13.066;2023-02-02T01:11:06;18.45;;;3.17;;
14074;SDS011;12831;52.392;13.066;2023-02-02T01:13:32;12.52;;;2.97;;
14074;SDS011;12831;52.392;13.066;2023-02-02T01:15:58;10.63;;;3.17;;
14074;SDS011;12831;52.392;13.066;2023-02-02T01:18:24;14.95;;;3.03;;
14074;SDS011;12831;52.392;13.066;2023-02-02T01:20:57;13.00;;;2.65;;
14074;SDS011;12831;52.392;13.066;2023-02-02T01:23:23;9.85;;;3.20;;
14074;SDS011;12831;52.392;13.066;2023-02-02T01:25:52;12.23;;;2.35;;
14074;SDS011;12831;52.392;13.066;2023-02-02T01:28:18;13.52;;;3.78;;
14074;SDS011;12831;52.392;13.066;2023-02-02T01:30:44;14.25;;;3.00;;
14074;SDS011;12831;52.392;13.066;2023-02-02T01:33:10;10.40;;;2.78;;
14074;SDS011;12831;52.392;13.066;2023-02-02T01:35:35;14.23;;;2.35;;
14074;SDS011;12831;52.392;13.066;2023-02-02T01:38:01;12.70;;;3.10;;
14074;SDS011;12831;52.392;13.066;2023-02-02T01:40:27;12.75;;;3.13;;
14074;SDS011;12831;52.392;13.066;2023-02-02T01:42:53;15.60;;;2.88;;
14074;SDS011;12831;52.392;13.066;2023-02-02T01:45:26;15.65;;;3.22;;
14074;SDS011;12831;52.392;13.066;2023-02-02T01:47:53;15.85;;;3.03;;
14074;SDS011;12831;52.392;13.066;2023-02-02T01:50:27;18.10;;;2.80;;
14074;SDS011;12831;52.392;13.066;2023-02-02T01:52:54;11.70;;;3.00;;
14074;SDS011;12831;52.392;13.066;2023-02-02T01:55:22;16.27;;;4.72;;
14074;SDS011;12831;52.392;13.066;2023-02-02T02:00:15;8.38;;;2.60;;
14074;SDS011;12831;52.392;13.066;2023-02-02T02:02:45;13.38;;;2.58;;
14074;SDS011;12831;52.392;13.066;2023-02-02T02:05:13;20.67;;;3.17;;
14074;SDS011;12831;52.392;13.066;2023-02-02T02:07:40;23.13;;;4.03;;
14074;SDS011;12831;52.392;13.066;2023-02-02T02:10:08;11.88;;;2.75;;
14074;SDS011;12831;52.392;13.066;2023-02-02T02:12:34;16.25;;;4.43;;
14074;SDS011;12831;52.392;13.066;2023-02-02T02:14:59;15.00;;;2.35;;
14074;SDS011;12831;52.392;13.066;2023-02-02T02:20:27;12.95;;;3.83;;
14074;SDS011;12831;52.392;13.066;2023-02-02T02:29:07;12.95;;;2.25;;
14074;SDS011;12831;52.392;13.066;2023-02-02T02:34:22;10.45;;;2.58;;
14074;SDS011;12831;52.392;13.066;2023-02-02T02:36:57;9.70;;;2.10;;
14074;SDS011;12831;52.392;13.066;2023-02-02T02:39:39;10.35;;;2.75;;
14074;SDS011;12831;52.392;13.066;2023-02-02T02:42:08;9.65;;;2.08;;
14074;SDS011;12831;52.392;13.066;2023-02-02T02:44:36;9.80;;;1.90;;
14074;SDS011;12831;52.392;13.066;2023-02-02T02:47:02;9.35;;;2.70;;
14074;SDS011;12831;52.392;13.066;2023-02-02T02:49:28;6.43;;;2.00;;
14074;SDS011;12831;52.392;13.066;2023-02-02T02:51:54;8.27;;;1.75;;
14074;SDS011;12831;52.392;13.066;2023-02-02T02:54:21;9.20;;;1.88;;
14074;SDS011;12831;52.392;13.066;2023-02-02T02:57:02;16.60;;;2.80;;
14074;SDS011;12831;52.392;13.066;2023-02-02T03:07:06;15.73;;;2.20;;
14074;SDS011;12831;52.392;13.066;2023-02-02T03:09:36;13.70;;;2.67;;
14074;SDS011;12831;52.392;13.066;2023-02-02T03:12:03;8.52;;;1.90;;
14074;SDS011;12831;52.392;13.066;2023-02-02T03:14:33;12.88;;;4.03;;
14074;SDS011;12831;52.392;13.066;2023-02-02T03:16:59;11.77;;;2.75;;
14074;SDS011;12831;52.392;13.066;2023-02-02T03:19:24;10.13;;;1.67;;
14074;SDS011;12831;52.392;13.066;2023-02-02T03:21:50;6.78;;;2.17;;
14074;SDS011;12831;52.392;13.066;2023-02-02T03:24:16;16.10;;;2.42;;
14074;SDS011;12831;52.392;13.066;2023-02-02T03:26:42;9.35;;;2.17;;
14074;SDS011;12831;52.392;13.066;2023-02-02T03:29:08;11.80;;;2.55;;
14074;SDS011;12831;52.392;13.066;2023-02-02T03:31:34;11.02;;;2.17;;
14074;SDS011;12831;52.392;13.066;2023-02-02T03:34:00;7.63;;;2.53;;
14074;SDS011;12831;52.392;13.066;2023-02-02T03:36:25;10.38;;;2.22;;
14074;SDS011;12831;52.392;13.066;2023-02-02T03:38:52;8.23;;;2.25;;
14074;SDS011;12831;52.392;13.066;2023-02-02T03:41:18;5.28;;;1.45;;
14074;SDS011;12831;52.392;13.066;2023-02-02T03:43:43;11.10;;;1.90;;
14074;SDS011;12831;52.392;13.066;2023-02-02T03:46:09;9.40;;;2.78;;
14074;SDS011;12831;52.392;13.066;2023-02-02T03:48:36;15.70;;;2.60;;
14074;SDS011;12831;52.392;13.066;2023-02-02T03:51:12;12.82;;;1.92;;
14074;SDS011;12831;52.392;13.066;2023-02-02T03:53:38;12.90;;;2.42;;
14074;SDS011;12831;52.392;13.066;2023-02-02T03:56:04;5.88;;;1.73;;
14074;SDS011;12831;52.392;13.066;2023-02-02T03:58:30;9.57;;;1.63;;
14074;SDS011;12831;52.392;13.066;2023-02-02T04:01:03;7.70;;;1.75;;
14074;SDS011;12831;52.392;13.066;2023-02-02T04:03:29;10.30;;;1.65;;
14074;SDS011;12831;52.392;13.066;2023-02-02T04:05:55;7.30;;;2.03;;
14074;SDS011;12831;52.392;13.066;2023-02-02T04:08:20;8.27;;;1.42;;
14074;SDS011;12831;52.392;13.066;2023-02-02T04:10:46;10.70;;;2.13;;
14074;SDS011;12831;52.392;13.066;2023-02-02T04:13:12;9.52;;;1.35;;
14074;SDS011;12831;52.392;13.066;2023-02-02T04:15:38;9.43;;;2.25;;
14074;SDS011;12831;52.392;13.066;2023-02-02T04:18:03;8.57;;;1.70;;
14074;SDS011;12831;52.392;13.066;2023-02-02T04:20:29;13.25;;;2.05;;
14074;SDS011;12831;52.392;13.066;2023-02-02T04:22:55;3.60;;;1.30;;
14074;SDS011;12831;52.392;13.066;2023-02-02T04:25:21;5.40;;;1.45;;
14074;SDS011;12831;52.392;13.066;2023-02-02T04:27:47;5.80;;;1.50;;
14074;SDS011;12831;52.392;13.066;2023-02-02T04:30:12;9.25;;;1.73;;
14074;SDS011;12831;52.392;13.066;2023-02-02T04:32:38;11.68;;;1.85;;
14074;SDS011;12831;52.392;13.066;2023-02-02T04:35:04;8.10;;;1.42;;
14074;SDS011;12831;52.392;13.066;2023-02-02T04:37:30;10.13;;;1.98;;
14074;SDS011;12831;52.392;13.066;2023-02-02T04:39:56;9.13;;;2.22;;
14074;SDS011;12831;52.392;13.066;2023-02-02T04:42:22;6.18;;;1.15;;
14074;SDS011;12831;52.392;13.066;2023-02-02T04:44:48;5.65;;;1.33;;
14074;SDS011;12831;52.392;13.066;2023-02-02T04:47:14;6.82;;;1.50;;
14074;SDS011;12831;52.392;13.066;2023-02-02T04:49:39;5.78;;;1.40;;
14074;SDS011;12831;52.392;13.066;2023-02-02T04:52:05;7.47;;;1.05;;
14074;SDS011;12831;52.392;13.066;2023-02-02T04:54:31;7.93;;;1.65;;
14074;SDS011;12831;52.392;13.066;2023-02-02T04:56:57;7.25;;;1.70;;
14074;SDS011;12831;52.392;13.066;2023-02-02T04:59:23;6.55;;;1.80;;
14074;SDS011;12831;52.392;13.066;2023-02-02T05:01:49;22.10;;;2.88;;
14074;SDS011;12831;52.392;13.066;2023-02-02T05:04:15;10.23;;;2.53;;
14074;SDS011;12831;52.392;13.066;2023-02-02T05:06:41;7.90;;;1.90;;
14074;SDS011;12831;52.392;13.066;2023-02-02T05:09:07;10.32;;;1.65;;
14074;SDS011;12831;52.392;13.066;2023-02-02T05:11:33;15.48;;;2.58;;
14074;SDS011;12831;52.392;13.066;2023-02-02T05:13:59;7.63;;;1.30;;
14074;SDS011;12831;52.392;13.066;2023-02-02T05:16:24;10.50;;;1.80;;
14074;SDS011;12831;52.392;13.066;2023-02-02T05:18:54;6.05;;;2.05;;
14074;SDS011;12831;52.392;13.066;2023-02-02T05:21:21;10.43;;;1.42;;
14074;SDS011;12831;52.392;13.066;2023-02-02T05:23:47;8.02;;;1.60;;
14074;SDS011;12831;52.392;13.066;2023-02-02T05:26:15;12.20;;;2.55;;
14074;SDS011;12831;52.392;13.066;2023-02-02T05:28:41;16.60;;;2.55;;
14074;SDS011;12831;52.392;13.066;2023-02-02T05:31:10;12.23;;;2.20;;
14074;SDS011;12831;52.392;13.066;2023-02-02T05:33:37;6.70;;;1.58;;
14074;SDS011;12831;52.392;13.066;2023-02-02T05:36:10;9.90;;;1.85;;
14074;SDS011;12831;52.392;13.066;2023-02-02T05:38:36;8.32;;;2.00;;
14074;SDS011;12831;52.392;13.066;2023-02-02T05:41:03;4.90;;;1.40;;
14074;SDS011;12831;52.392;13.066;2023-02-02T05:43:30;17.20;;;2.05;;
14074;SDS011;12831;52.392;13.066;2023-02-02T05:45:56;10.35;;;3.42;;
14074;SDS011;12831;52.392;13.066;2023-02-02T05:48:22;6.20;;;1.60;;
14074;SDS011;12831;52.392;13.066;2023-02-02T05:53:26;7.95;;;1.50;;
14074;SDS011;12831;52.392;13.066;2023-02-02T05:55:52;5.22;;;1.52;;
14074;SDS011;12831;52.392;13.066;2023-02-02T05:58:18;6.78;;;1.50;;
14074;SDS011;12831;52.392;13.066;2023-02-02T06:00:44;10.55;;;1.92;;
14074;SDS011;12831;52.392;13.066;2023-02-02T06:03:12;6.47;;;1.42;;
14074;SDS011;12831;52.392;13.066;2023-02-02T06:08:27;7.80;;;1.55;;
14074;SDS011;12831;52.392;13.066;2023-02-02T06:10:55;5.13;;;1.00;;
14074;SDS011;12831;52.392;13.066;2023-02-02T06:13:22;9.15;;;1.95;;
14074;SDS011;12831;52.392;13.066;2023-02-02T06:15:51;11.48;;;1.77;;
14074;SDS011;12831;52.392;13.066;2023-02-02T06:18:17;9.20;;;2.65;;
14074;SDS011;12831;52.392;13.066;2023-02-02T06:20:44;11.10;;;1.27;;
14074;SDS011;12831;52.392;13.066;2023-02-02T06:23:11;9.57;;;2.38;;
14074;SDS011;12831;52.392;13.066;2023-02-02T06:25:37;5.75;;;1.52;;
14074;SDS011;12831;52.392;13.066;2023-02-02T06:28:03;7.80;;;1.95;;
14074;SDS011;12831;52.392;13.066;2023-02-02T06:30:29;10.52;;;2.08;;
14074;SDS011;12831;52.392;13.066;2023-02-02T06:32:57;11.07;;;2.75;;
14074;SDS011;12831;52.392;13.066;2023-02-02T06:35:33;9.30;;;1.45;;
14074;SDS011;12831;52.392;13.066;2023-02-02T06:38:00;12.93;;;2.15;;
14074;SDS011;12831;52.392;13.066;2023-02-02T06:40:26;7.10;;;2.95;;
14074;SDS011;12831;52.392;13.066;2023-02-02T06:43:00;8.63;;;2.47;;
14074;SDS011;12831;52.392;13.066;2023-02-02T06:45:28;8.65;;;1.50;;
14074;SDS011;12831;52.392;13.066;2023-02-02T06:47:59;11.77;;;3.50;;
14074;SDS011;12831;52.392;13.066;2023-02-02T06:50:29;9.32;;;2.10;;
14074;SDS011;12831;52.392;13.066;2023-02-02T06:52:55;10.90;;;2.35;;
14074;SDS011;12831;52.392;13.066;2023-02-02T06:55:21;13.75;;;2.28;;
14074;SDS011;12831;52.392;13.066;2023-02-02T06:57:48;8.88;;;1.90;;
14074;SDS011;12831;52.392;13.066;2023-02-02T07:00:14;10.63;;;1.90;;
14074;SDS011;12831;52.392;13.066;2023-02-02T07:02:43;9.48;;;2.63;;
14074;SDS011;12831;52.392;13.066;2023-02-02T07:05:26;12.05;;;2.40;;
14074;SDS011;12831;52.392;13.066;2023-02-02T07:07:55;16.08;;;2.92;;
14074;SDS011;12831;52.392;13.066;2023-02-02T07:10:22;17.42;;;3.50;;
14074;SDS011;12831;52.392;13.066;2023-02-02T07:13:08;21.38;;;3.47;;
14074;SDS011;12831;52.392;13.066;2023-02-02T07:15:37;17.23;;;2.75;;
14074;SDS011;12831;52.392;13.066;2023-02-02T07:18:03;14.20;;;3.10;;
14074;SDS011;12831;52.392;13.066;2023-02-02T07:20:30;12.40;;;2.05;;
14074;SDS011;12831;52.392;13.066;2023-02-02T07:22:56;9.52;;;2.95;;
14074;SDS011;12831;52.392;13.066;2023-02-02T07:25:23;12.02;;;2.58;;
14074;SDS011;12831;52.392;13.066;2023-02-02T07:27:53;21.27;;;2.72;;
14074;SDS011;12831;52.392;13.066;2023-02-02T07:30:24;10.23;;;2.45;;
14074;SDS011;12831;52.392;13.066;2023-02-02T07:32:54;10.18;;;2.25;;
14074;SDS011;12831;52.392;13.066;2023-02-02T07:35:36;15.52;;;2.28;;
14074;SDS011;12831;52.392;13.066;2023-02-02T07:38:02;15.40;;;2.50;;
14074;SDS011;12831;52.392;13.066;2023-02-02T07:40:28;13.63;;;3.00;;
14074;SDS011;12831;52.392;13.066;2023-02-02T07:43:01;10.65;;;2.78;;
14074;SDS011;12831;52.392;13.066;2023-02-02T07:45:28;8.85;;;2.10;;
14074;SDS011;12831;52.392;13.066;2023-02-02T07:47:55;8.27;;;1.92;;
14074;SDS011;12831;52.392;13.066;2023-02-02T07:50:25;13.52;;;2.58;;
14074;SDS011;12831;52.392;13.066;2023-02-02T07:52:53;7.72;;;1.80;;
14074;SDS011;12831;52.392;13.066;2023-02-02T07:55:33;7.50;;;1.60;;
14074;SDS011;12831;52.392;13.066;2023-02-02T07:57:59;14.00;;;2.45;;
14074;SDS011;12831;52.392;13.066;2023-02-02T08:00:26;12.45;;;1.65;;
14074;SDS011;12831;52.392;13.066;2023-02-02T08:02:52;8.45;;;1.52;;
14074;SDS011;12831;52.392;13.066;2023-02-02T08:05:22;6.07;;;1.55;;
14074;SDS011;12831;52.392;13.066;2023-02-02T08:07:48;10.00;;;2.33;;
14074;SDS011;12831;52.392;13.066;2023-02-02T08:10:15;8.75;;;1.98;;
14074;SDS011;12831;52.392;13.066;2023-02-02T08:12:41;9.88;;;2.42;;
14074;SDS011;12831;52.392;13.066;2023-02-02T08:15:08;6.82;;;2.13;;
14074;SDS011;12831;52.392;13.066;2023-02-02T08:17:34;6.63;;;2.55;;
14074;SDS011;12831;52.392;13.066;2023-02-02T08:20:16;6.30;;;1.15;;
14074;SDS011;12831;52.392;13.066;2023-02-02T08:22:42;8.40;;;2.65;;
14074;SDS011;12831;52.392;13.066;2023-02-02T08:25:08;6.60;;;1.50;;
14074;SDS011;12831;52.392;13.066;2023-02-02T08:27:34;11.20;;;1.55;;
14074;SDS011;12831;52.392;13.066;2023-02-02T08:30:03;3.90;;;1.85;;
14074;SDS011;12831;52.392;13.066;2023-02-02T08:32:29;9.38;;;2.17;;
14074;SDS011;12831;52.392;13.066;2023-02-02T08:35:04;4.03;;;1.33;;
14074;SDS011;12831;52.392;13.066;2023-02-02T08:37:30;3.47;;;1.27;;
14074;SDS011;12831;52.392;13.066;2023-02-02T08:39:58;4.97;;;1.90;;
14074;SDS011;12831;52.392;13.066;2023-02-02T08:42:24;5.57;;;1.20;;
14074;SDS011;12831;52.392;13.066;2023-02-02T08:44:50;6.57;;;1.02;;
14074;SDS011;12831;52.392;13.066;2023-02-02T08:47:35;8.23;;;1.27;;
14074;SDS011;12831;52.392;13.066;2023-02-02T08:50:02;10.35;;;1.55;;
14074;SDS011;12831;52.392;13.066;2023-02-02T08:52:28;2.85;;;1.30;;
14074;SDS011;12831;52.392;13.066;2023-02-02T08:54:54;8.25;;;2.03;;
14074;SDS011;12831;52.392;13.066;2023-02-02T08:57:19;6.47;;;1.58;;
14074;SDS011;12831;52.392;13.066;2023-02-02T08:59:46;6.75;;;1.25;;
14074;SDS011;12831;52.392;13.066;2023-02-02T09:02:12;6.15;;;1.58;;
14074;SDS011;12831;52.392;13.066;2023-02-02T09:04:42;11.15;;;2.08;;
14074;SDS011;12831;52.392;13.066;2023-02-02T09:07:10;15.75;;;3.50;;
14074;SDS011;12831;52.392;13.066;2023-02-02T09:09:35;13.15;;;2.13;;
14074;SDS011;12831;52.392;13.066;2023-02-02T09:12:02;7.72;;;1.52;;
14074;SDS011;12831;52.392;13.066;2023-02-02T09:14:28;10.07;;;2.15;;
14074;SDS011;12831;52.392;13.066;2023-02-02T09:16:54;8.38;;;1.52;;
14074;SDS011;12831;52.392;13.066;2023-02-02T09:19:20;10.70;;;2.55;;
14074;SDS011;12831;52.392;13.066;2023-02-02T09:21:48;9.07;;;1.92;;
14074;SDS011;12831;52.392;13.066;2023-02-02T09:24:15;11.10;;;2.17;;
14074;SDS011;12831;52.392;13.066;2023-02-02T09:26:41;11.80;;;1.67;;
14074;SDS011;12831;52.392;13.066;2023-02-02T09:29:10;5.00;;;1.90;;
14074;SDS011;12831;52.392;13.066;2023-02-02T09:31:36;10.40;;;2.00;;
14074;SDS011;12831;52.392;13.066;2023-02-02T09:34:05;7.57;;;2.13;;
14074;SDS011;12831;52.392;13.066;2023-02-02T09:36:43;4.03;;;1.20;;
14074;SDS011;12831;52.392;13.066;2023-02-02T09:39:10;11.23;;;3.33;;
14074;SDS011;12831;52.392;13.066;2023-02-02T09:47:03;7.80;;;1.40;;
14074;SDS011;12831;52.392;13.066;2023-02-02T09:49:27;7.47;;;1.83;;
14074;SDS011;12831;52.392;13.066;2023-02-02T09:51:58;9.27;;;2.70;;
14074;SDS011;12831;52.392;13.066;2023-02-02T09:54:34;11.85;;;2.75;;
14074;SDS011;12831;52.392;13.066;2023-02-02T09:57:03;7.90;;;1.85;;
14074;SDS011;12831;52.392;13.066;2023-02-02T09:59:34;7.18;;;1.45;;
14074;SDS011;12831;52.392;13.066;2023-02-02T10:02:03;8.05;;;2.03;;
14074;SDS011;12831;52.392;13.066;2023-02-02T10:04:32;11.65;;;1.40;;
14074;SDS011;12831;52.392;13.066;2023-02-02T10:09:58;9.52;;;1.15;;
14074;SDS011;12831;52.392;13.066;2023-02-02T10:23:03;5.25;;;1.27;;
14074;SDS011;12831;52.392;13.066;2023-02-02T10:25:31;4.63;;;0.93;;
14074;SDS011;12831;52.392;13.066;2023-02-02T10:28:03;7.22;;;1.60;;
14074;SDS011;12831;52.392;13.066;2023-02-02T10:30:34;8.05;;;1.75;;
14074;SDS011;12831;52.392;13.066;2023-02-02T10:33:05;7.30;;;1.38;;
14074;SDS011;12831;52.392;13.066;2023-02-02T10:35:49;5.32;;;1.40;;
14074;SDS011;12831;52.392;13.066;2023-02-02T10:46:14;2.97;;;1.08;;
14074;SDS011;12831;52.392;13.066;2023-02-02T10:48:44;5.13;;;1.48;;
14074;SDS011;12831;52.392;13.066;2023-02-02T10:51:14;1.92;;;0.60;;
14074;SDS011;12831;52.392;13.066;2023-02-02T10:53:42;4.53;;;1.50;;
14074;SDS011;12831;52.392;13.066;2023-02-02T10:56:11;4.55;;;1.27;;
14074;SDS011;12831;52.392;13.066;2023-02-02T10:58:53;4.03;;;0.90;;
14074;SDS011;12831;52.392;13.066;2023-02-02T11:01:27;3.88;;;0.63;;
14074;SDS011;12831;52.392;13.066;2023-02-02T11:03:54;7.85;;;1.95;;
14074;SDS011;12831;52.392;13.066;2023-02-02T11:06:46;4.80;;;2.00;;
14074;SDS011;12831;52.392;13.066;2023-02-02T11:09:25;5.38;;;0.90;;
14074;SDS011;12831;52.392;13.066;2023-02-02T11:12:38;4.10;;;1.02;;
14074;SDS011;12831;52.392;13.066;2023-02-02T11:14:46;9.05;;;1.02;;
14074;SDS011;12831;52.392;13.066;2023-02-02T11:17:32;16.98;;;2.80;;
14074;SDS011;12831;52.392;13.066;2023-02-02T11:23:02;6.10;;;1.85;;
14074;SDS011;12831;52.392;13.066;2023-02-02T11:25:37;7.03;;;1.60;;
14074;SDS011;12831;52.392;13.066;2023-02-02T11:28:19;7.13;;;1.58;;
14074;SDS011;12831;52.392;13.066;2023-02-02T11:30:47;6.85;;;1.40;;
14074;SDS011;12831;52.392;13.066;2023-02-02T11:33:30;3.95;;;1.30;;
14074;SDS011;12831;52.392;13.066;2023-02-02T11:36:16;6.80;;;1.63;;
14074;SDS011;12831;52.392;13.066;2023-02-02T11:38:43;10.43;;;1.55;;
14074;SDS011;12831;52.392;13.066;2023-02-02T11:41:09;7.53;;;1.92;;
14074;SDS011;12831;52.392;13.066;2023-02-02T11:43:48;7.35;;;1.58;;
14074;SDS011;12831;52.392;13.066;2023-02-02T11:46:19;6.88;;;1.15;;
14074;SDS011;12831;52.392;13.066;2023-02-02T11:51:22;7.63;;;1.92;;
14074;SDS011;12831;52.392;13.066;2023-02-02T11:53:50;4.85;;;1.15;;
14074;SDS011;12831;52.392;13.066;2023-02-02T11:56:27;4.82;;;1.00;;
14074;SDS011;12831;52.392;13.066;2023-02-02T11:58:57;6.28;;;1.55;;
14074;SDS011;12831;52.392;13.066;2023-02-02T12:01:27;4.00;;;1.55;;
14074;SDS011;12831;52.392;13.066;2023-02-02T12:03:54;8.52;;;2.15;;
14074;SDS011;12831;52.392;13.066;2023-02-02T12:06:35;5.63;;;1.50;;
14074;SDS011;12831;52.392;13.066;2023-02-02T12:09:06;5.70;;;1.50;;
14074;SDS011;12831;52.392;13.066;2023-02-02T12:11:37;5.68;;;1.63;;
14074;SDS011;12831;52.392;13.066;2023-02-02T12:17:16;6.45;;;2.17;;
14074;SDS011;12831;52.392;13.066;2023-02-02T12:25:58;8.18;;;1.27;;
14074;SDS011;12831;52.392;13.066;2023-02-02T12:27:55;9.07;;;1.27;;
14074;SDS011;12831;52.392;13.066;2023-02-02T12:39:19;7.22;;;0.80;;
14074;SDS011;12831;52.392;13.066;2023-02-02T12:47:11;4.28;;;1.00;;
14074;SDS011;12831;52.392;13.066;2023-02-02T13:00:02;5.75;;;1.25;;
14074;SDS011;12831;52.392;13.066;2023-02-02T13:08:56;7.82;;;1.98;;
14074;SDS011;12831;52.392;13.066;2023-02-02T15:47:47;8.95;;;2.00;;
14074;SDS011;12831;52.392;13.066;2023-02-02T15:50:16;7.43;;;2.20;;
14074;SDS011;12831;52.392;13.066;2023-02-02T15:52:44;4.95;;;1.73;;
14074;SDS011;12831;52.392;13.066;2023-02-02T15:55:19;7.20;;;1.60;;
14074;SDS011;12831;52.392;13.066;2023-02-02T15:57:49;11.40;;;2.78;;
14074;SDS011;12831;52.392;13.066;2023-02-02T16:00:21;9.27;;;2.05;;
14074;SDS011;12831;52.392;13.066;2023-02-02T16:03:04;8.93;;;2.80;;
14074;SDS011;12831;52.392;13.066;2023-02-02T16:08:54;5.00;;;1.63;;
14074;SDS011;12831;52.392;13.066;2023-02-02T16:11:27;4.63;;;1.40;;
14074;SDS011;12831;52.392;13.066;2023-02-02T16:13:59;7.50;;;2.35;;
14074;SDS011;12831;52.392;13.066;2023-02-02T16:16:42;8.23;;;1.67;;
14074;SDS011;12831;52.392;13.066;2023-02-02T16:19:23;6.65;;;1.33;;
14074;SDS011;12831;52.392;13.066;2023-02-02T16:22:07;7.40;;;1.85;;
14074;SDS011;12831;52.392;13.066;2023-02-02T16:24:35;6.13;;;1.90;;
14074;SDS011;12831;52.392;13.066;2023-02-02T16:27:04;6.18;;;1.80;;
14074;SDS011;12831;52.392;13.066;2023-02-02T16:29:48;7.00;;;1.67;;
14074;SDS011;12831;52.392;13.066;2023-02-02T16:41:09;8.57;;;2.45;;
14074;SDS011;12831;52.392;13.066;2023-02-02T16:43:39;5.50;;;2.13;;
14074;SDS011;12831;52.392;13.066;2023-02-02T16:46:15;3.97;;;1.30;;
14074;SDS011;12831;52.392;13.066;2023-02-02T16:49:01;4.18;;;1.60;;
14074;SDS011;12831;52.392;13.066;2023-02-02T16:51:33;9.68;;;1.50;;
14074;SDS011;12831;52.392;13.066;2023-02-02T16:56:40;9.30;;;1.85;;
14074;SDS011;12831;52.392;13.066;2023-02-02T17:01:52;6.57;;;1.40;;
14074;SDS011;12831;52.392;13.066;2023-02-02T17:04:22;5.60;;;1.25;;
14074;SDS011;12831;52.392;13.066;2023-02-02T17:06:49;4.22;;;1.25;;
14074;SDS011;12831;52.392;13.066;2023-02-02T17:09:26;6.93;;;1.80;;
14074;SDS011;12831;52.392;13.066;2023-02-02T17:11:58;7.72;;;1.70;;
14074;SDS011;12831;52.392;13.066;2023-02-02T17:14:33;4.90;;;1.95;;
14074;SDS011;12831;52.392;13.066;2023-02-02T17:17:00;3.03;;;1.23;;
14074;SDS011;12831;52.392;13.066;2023-02-02T17:19:27;7.72;;;2.30;;
14074;SDS011;12831;52.392;13.066;2023-02-02T17:22:12;7.00;;;2.03;;
14074;SDS011;12831;52.392;13.066;2023-02-02T17:24:40;5.30;;;1.80;;
14074;SDS011;12831;52.392;13.066;2023-02-02T17:27:09;6.80;;;2.05;;
14074;SDS011;12831;52.392;13.066;2023-02-02T17:29:38;6.65;;;1.83;;
14074;SDS011;12831;52.392;13.066;2023-02-02T17:32:07;4.53;;;1.77;;
14074;SDS011;12831;52.392;13.066;2023-02-02T17:34:33;4.38;;;1.60;;
14074;SDS011;12831;52.392;13.066;2023-02-02T17:37:08;10.68;;;2.15;;
14074;SDS011;12831;52.392;13.066;2023-02-02T17:39:34;8.32;;;2.08;;
14074;SDS011;12831;52.392;13.066;2023-02-02T17:42:04;7.63;;;2.15;;
14074;SDS011;12831;52.392;13.066;2023-02-02T17:44:30;6.38;;;1.95;;
14074;SDS011;12831;52.392;13.066;2023-02-02T17:46:56;9.48;;;2.63;;
14074;SDS011;12831;52.392;13.066;2023-02-02T17:49:24;7.05;;;3.38;;
14074;SDS011;12831;52.392;13.066;2023-02-02T17:51:51;7.43;;;3.20;;
14074;SDS011;12831;52.392;13.066;2023-02-02T17:54:19;11.50;;;3.97;;
14074;SDS011;12831;52.392;13.066;2023-02-02T17:56:45;9.17;;;4.17;;
14074;SDS011;12831;52.392;13.066;2023-02-02T17:59:13;11.27;;;4.03;;
14074;SDS011;12831;52.392;13.066;2023-02-02T18:01:40;11.47;;;3.90;;
14074;SDS011;12831;52.392;13.066;2023-02-02T18:04:06;13.00;;;4.13;;
14074;SDS011;12831;52.392;13.066;2023-02-02T18:06:35;11.15;;;3.70;;
14074;SDS011;12831;52.392;13.066;2023-02-02T18:09:03;13.70;;;4.43;;
14074;SDS011;12831;52.392;13.066;2023-02-02T18:11:29;11.73;;;4.00;;
14074;SDS011;12831;52.392;13.066;2023-02-02T18:13:56;9.40;;;4.57;;
14074;SDS011;12831;52.392;13.066;2023-02-02T18:16:22;17.92;;;6.45;;
14074;SDS011;12831;52.392;13.066;2023-02-02T18:18:59;12.30;;;5.47;;
14074;SDS011;12831;52.392;13.066;2023-02-02T18:21:25;8.80;;;3.90;;
14074;SDS011;12831;52.392;13.066;2023-02-02T18:23:54;11.00;;;3.13;;
14074;SDS011;12831;52.392;13.066;2023-02-02T18:26:22;12.30;;;4.17;;
14074;SDS011;12831;52.392;13.066;2023-02-02T18:28:48;9.20;;;3.53;;
14074;SDS011;12831;52.392;13.066;2023-02-02T18:31:17;10.23;;;3.13;;
14074;SDS011;12831;52.392;13.066;2023-02-02T18:33:50;5.17;;;2.50;;
14074;SDS011;12831;52.392;13.066;2023-02-02T18:36:34;7.90;;;2.00;;
14074;SDS011;12831;52.392;13.066;2023-02-02T18:39:01;5.28;;;2.00;;
14074;SDS011;12831;52.392;13.066;2023-02-02T18:41:27;9.87;;;2.80;;
14074;SDS011;12831;52.392;13.066;2023-02-02T18:43:54;5.27;;;2.33;;
14074;SDS011;12831;52.392;13.066;2023-02-02T18:46:21;6.68;;;1.90;;
14074;SDS011;12831;52.392;13.066;2023-02-02T18:48:48;7.23;;;2.37;;
14074;SDS011;12831;52.392;13.066;2023-02-02T18:51:28;7.33;;;2.47;;
14074;SDS011;12831;52.392;13.066;2023-02-02T18:53:59;5.60;;;2.40;;
14074;SDS011;12831;52.392;13.066;2023-02-02T18:56:27;9.77;;;3.23;;
14074;SDS011;12831;52.392;13.066;2023-02-02T18:58:54;10.90;;;3.67;;
14074;SDS011;12831;52.392;13.066;2023-02-02T19:01:22;7.90;;;2.63;;
14074;SDS011;12831;52.392;13.066;2023-02-02T19:03:53;8.52;;;3.30;;
14074;SDS011;12831;52.392;13.066;2023-02-02T19:06:21;12.20;;;2.30;;
14074;SDS011;12831;52.392;13.066;2023-02-02T19:09:05;4.60;;;2.13;;
14074;SDS011;12831;52.392;13.066;2023-02-02T19:11:35;11.13;;;4.27;;